Time;durP1;ratioP1;P1;durP2;ratioP2;P2;SDS_P1;SDS_P2;PMS_P1;PMS_P2;Temp;Humidity;BMP_temperature;BMP_pressure;BME280_temperature;BME280_humidity;BME280_pressure;Samples;Min_cycle;Max_cycle;Signal;HPM_P1;HPM_P2
2022/07/31 00:01:17;;;;;;;7.65;3.28;;;;;;;21.26;53.71;100087.00;5029641;28;20290;-86
2022/07/31 00:03:42;;;;;;;10.95;3.35;;;;;;;21.29;53.27;100080.81;5034417;28;20038;-85
2022/07/31 00:06:08;;;;;;;6.05;3.75;;;;;;;21.17;53.84;100081.47;5034659;28;20392;-86
2022/07/31 00:08:33;;;;;;;5.35;3.28;;;;;;;21.19;53.95;100081.16;5034923;28;20045;-85
2022/07/31 00:10:59;;;;;;;8.45;3.15;;;;;;;21.27;53.54;100072.00;5052615;28;20036;-85
2022/07/31 00:13:24;;;;;;;7.60;3.70;;;;;;;21.21;53.45;100076.09;5055103;28;20080;-92
2022/07/31 00:15:50;;;;;;;5.60;2.78;;;;;;;21.30;53.55;100079.66;5055620;28;20604;-92
2022/07/31 00:18:15;;;;;;;7.20;3.47;;;;;;;21.36;53.65;100082.25;5051667;28;20424;-92
2022/07/31 00:20:41;;;;;;;8.43;4.07;;;;;;;21.42;53.30;100080.91;5053107;28;20037;-91
2022/07/31 00:23:06;;;;;;;6.35;3.25;;;;;;;21.44;53.60;100075.84;5053440;28;20254;-80
2022/07/31 00:25:32;;;;;;;6.10;3.30;;;;;;;21.37;53.49;100075.53;5052235;28;20472;-80
2022/07/31 00:27:57;;;;;;;6.72;3.40;;;;;;;21.34;53.61;100077.84;5048818;28;20041;-75
2022/07/31 00:30:23;;;;;;;7.05;3.42;;;;;;;21.29;53.83;100072.47;5034762;28;20060;-75
2022/07/31 00:32:48;;;;;;;6.22;3.78;;;;;;;21.31;54.01;100072.97;5028516;28;20037;-76
2022/07/31 00:35:13;;;;;;;7.53;3.60;;;;;;;21.17;54.20;100062.09;5031550;28;20412;-76
2022/07/31 00:37:40;;;;;;;4.72;3.35;;;;;;;21.10;54.88;100051.50;5049235;28;20025;-79
2022/07/31 00:40:07;;;;;;;7.13;3.75;;;;;;;20.89;54.45;100059.63;5047052;28;20487;-78
2022/07/31 00:42:32;;;;;;;8.80;2.20;;;;;;;20.68;54.94;100056.72;5072163;28;20020;-92
2022/07/31 00:44:58;;;;;;;5.53;2.45;;;;;;;20.81;54.68;100061.28;5074481;28;20044;-91
2022/07/31 00:47:23;;;;;;;5.18;2.80;;;;;;;20.75;54.75;100057.88;5073847;28;20717;-82
2022/07/31 00:49:49;;;;;;;6.00;3.27;;;;;;;20.70;54.37;100058.03;5053740;28;20045;-81
2022/07/31 00:52:14;;;;;;;5.68;2.63;;;;;;;20.82;53.67;100057.38;5033200;28;20263;-86
2022/07/31 00:54:39;;;;;;;4.47;2.73;;;;;;;20.86;54.41;100058.34;5033963;28;20053;-86
2022/07/31 00:57:05;;;;;;;8.60;3.25;;;;;;;21.03;54.34;100044.81;5032608;28;20738;-78
2022/07/31 00:59:30;;;;;;;6.78;2.85;;;;;;;20.90;54.95;100052.97;5029855;28;20111;-78
2022/07/31 01:01:57;;;;;;;5.05;3.63;;;;;;;20.77;55.29;100049.22;5028088;28;20033;-80
2022/07/31 01:04:22;;;;;;;5.28;2.60;;;;;;;20.69;56.30;100047.28;5030582;28;20107;-80
2022/07/31 01:06:48;;;;;;;4.97;3.33;;;;;;;20.45;56.61;100045.81;5031249;28;20029;-79
2022/07/31 01:09:14;;;;;;;5.63;2.80;;;;;;;20.36;56.69;100046.63;5031486;28;20057;-78
2022/07/31 01:12:02;;;;;;;6.13;2.95;;;;;;;20.26;56.98;100041.41;5044905;28;20034;-78
2022/07/31 01:14:32;;;;;;;6.93;3.25;;;;;;;20.25;57.09;100045.31;5028248;28;20049;-78
2022/07/31 01:16:59;;;;;;;5.55;3.10;;;;;;;20.17;56.94;100052.47;5030569;28;20037;-86
2022/07/31 01:19:36;;;;;;;5.75;2.58;;;;;;;20.17;56.92;100041.41;5038501;28;20041;-86
2022/07/31 01:22:25;;;;;;;7.63;3.10;;;;;;;20.13;57.55;100043.19;5050530;28;20036;-78
2022/07/31 01:25:06;;;;;;;5.80;3.30;;;;;;;20.13;57.82;100049.53;5047975;28;20045;-78
2022/07/31 01:27:40;;;;;;;7.95;3.63;;;;;;;20.00;57.54;100044.91;5047544;28;20127;-78
2022/07/31 01:30:06;;;;;;;4.43;2.63;;;;;;;19.94;57.56;100041.50;5036217;28;20053;-78
2022/07/31 01:32:40;;;;;;;8.48;3.30;;;;;;;19.95;57.97;100041.16;5031503;28;20033;-85
2022/07/31 01:35:19;;;;;;;3.35;2.35;;;;;;;19.93;57.50;100046.19;5032577;28;20041;-85
2022/07/31 01:37:51;;;;;;;5.18;3.15;;;;;;;19.90;57.78;100044.09;5034439;28;20049;-82
2022/07/31 01:40:24;;;;;;;5.63;2.95;;;;;;;19.88;57.79;100042.78;5052365;28;20045;-82
2022/07/31 01:42:51;;;;;;;;;;;;;;;19.90;57.47;100041.31;5054046;28;20044;-78
2022/07/31 01:45:19;;;;;;;6.38;2.95;;;;;;;19.87;57.96;100030.88;5047554;28;19924;-78
2022/07/31 01:47:48;;;;;;;4.95;2.38;;;;;;;19.89;57.42;100042.44;5063472;28;20029;-75
2022/07/31 01:50:14;;;;;;;5.00;2.90;;;;;;;19.87;58.05;100041.16;5053253;28;20028;-76
2022/07/31 01:52:41;;;;;;;6.45;2.67;;;;;;;19.81;58.65;100038.53;5047043;28;20055;-78
2022/07/31 01:55:08;;;;;;;5.40;2.83;;;;;;;19.79;59.12;100031.69;5047212;28;20113;-79
2022/07/31 01:57:35;;;;;;;6.07;3.33;;;;;;;19.62;59.61;100033.28;5047703;28;20047;-78
2022/07/31 02:00:06;;;;;;;6.47;2.85;;;;;;;19.68;58.19;100029.22;5047130;28;20051;-78
2022/07/31 02:02:33;;;;;;;4.03;2.55;;;;;;;19.77;58.93;100034.78;5048089;28;20519;-82
2022/07/31 02:04:59;;;;;;;7.72;2.83;;;;;;;19.82;58.64;100031.03;5051598;28;20112;-82
2022/07/31 02:07:26;;;;;;;7.22;3.28;;;;;;;19.85;59.08;100027.66;5049272;28;20033;-78
2022/07/31 02:09:53;;;;;;;5.57;2.95;;;;;;;19.86;58.83;100029.28;5037465;28;20523;-78
2022/07/31 02:12:19;;;;;;;5.13;3.03;;;;;;;19.74;60.04;100034.59;5036594;28;20060;-75
2022/07/31 02:14:45;;;;;;;4.35;2.55;;;;;;;19.73;59.32;100021.91;5046904;28;20079;-78
2022/07/31 02:17:12;;;;;;;3.72;2.45;;;;;;;19.76;59.28;100027.63;5046811;28;20033;-79
2022/07/31 02:19:39;;;;;;;7.90;3.05;;;;;;;19.75;59.19;100025.19;5046576;28;20710;-78
2022/07/31 02:22:05;;;;;;;4.38;2.80;;;;;;;19.79;58.67;100028.94;5046823;28;20051;-77
2022/07/31 02:24:31;;;;;;;7.07;3.67;;;;;;;19.71;59.27;100020.28;5046969;28;20036;-78
2022/07/31 02:26:57;;;;;;;4.78;2.70;;;;;;;19.75;59.50;100023.22;5078802;28;20644;-78
2022/07/31 02:29:23;;;;;;;7.38;3.20;;;;;;;19.73;59.57;100024.69;5047299;28;20033;-78
2022/07/31 02:31:50;;;;;;;5.65;2.97;;;;;;;19.64;60.45;100017.19;5049928;28;20056;-80
2022/07/31 02:34:17;;;;;;;4.30;2.63;;;;;;;19.66;60.17;100022.38;5047781;28;20548;-80
2022/07/31 02:36:44;;;;;;;4.75;3.25;;;;;;;19.64;60.02;100011.66;5046172;28;20029;-76
2022/07/31 02:39:11;;;;;;;5.63;2.85;;;;;;;19.71;60.40;100011.16;5041066;28;20452;-75
2022/07/31 02:41:38;;;;;;;5.15;3.13;;;;;;;19.77;59.75;100004.34;5029652;28;20029;-79
2022/07/31 02:44:03;;;;;;;5.32;3.45;;;;;;;19.80;59.29;99998.19;5045396;28;20136;-78
2022/07/31 02:46:29;;;;;;;8.70;3.45;;;;;;;19.76;59.11;100001.91;5052511;28;20115;-78
2022/07/31 02:48:55;;;;;;;4.72;2.80;;;;;;;19.76;59.19;99996.38;5062814;28;20028;-78
2022/07/31 02:51:22;;;;;;;8.25;3.20;;;;;;;19.79;57.71;99995.75;5029950;28;20087;-82
2022/07/31 02:53:48;;;;;;;6.97;2.70;;;;;;;19.81;57.77;99994.25;5031450;28;20041;-83
2022/07/31 02:56:15;;;;;;;11.27;2.63;;;;;;;19.81;58.04;99999.00;5028232;28;20396;-78
2022/07/31 02:58:41;;;;;;;9.18;2.85;;;;;;;19.80;58.27;99997.38;5027367;28;20106;-78
2022/07/31 03:01:07;;;;;;;5.72;2.50;;;;;;;19.83;57.71;99985.66;5046418;28;20045;-92
2022/07/31 03:03:32;;;;;;;5.22;3.13;;;;;;;19.83;57.65;99989.22;5053106;28;20036;-92
2022/07/31 03:05:58;;;;;;;4.65;2.33;;;;;;;19.89;56.69;99984.34;5056946;28;20033;-85
2022/07/31 03:08:23;;;;;;;10.23;3.08;;;;;;;19.89;57.16;99984.34;5055738;28;20116;-85
2022/07/31 03:10:49;;;;;;;3.95;2.00;;;;;;;19.91;56.24;99976.53;5035322;28;20112;-85
2022/07/31 03:13:15;;;;;;;14.13;3.55;;;;;;;20.00;56.45;99978.50;5069464;28;20028;-85
2022/07/31 03:15:42;;;;;;;4.05;2.33;;;;;;;19.92;55.29;99978.19;5075387;28;20086;-81
2022/07/31 03:18:10;;;;;;;5.55;2.25;;;;;;;20.07;54.47;99981.63;5072272;28;20113;-80
2022/07/31 03:20:37;;;;;;;6.13;3.10;;;;;;;20.19;54.33;99975.47;5056229;28;20151;-78
2022/07/31 03:23:03;;;;;;;3.50;2.10;;;;;;;20.20;54.00;99977.09;5050348;28;20393;-77
2022/07/31 03:25:31;;;;;;;7.03;3.20;;;;;;;20.07;54.11;99976.09;5051734;28;20040;-80
2022/07/31 03:27:56;;;;;;;4.07;2.22;;;;;;;20.25;54.07;99979.72;5053092;28;20025;-79
2022/07/31 03:30:25;;;;;;;4.82;2.30;;;;;;;20.31;53.56;99972.06;5040661;28;20092;-80
2022/07/31 03:32:52;;;;;;;6.57;2.88;;;;;;;20.33;53.95;99969.78;5031480;28;20041;-81
2022/07/31 03:35:18;;;;;;;6.75;2.63;;;;;;;20.45;53.40;99969.13;5032005;28;20120;-78
2022/07/31 03:37:44;;;;;;;6.63;2.60;;;;;;;20.46;53.16;99972.72;5030393;28;20037;-79
2022/07/31 03:40:09;;;;;;;9.35;3.80;;;;;;;20.50;52.95;99965.38;5030044;28;20030;-82
2022/07/31 03:42:35;;;;;;;5.22;2.22;;;;;;;20.45;53.29;99965.53;5058659;28;20553;-83
2022/07/31 03:45:03;;;;;;;3.25;2.28;;;;;;;20.50;53.48;99962.59;5074752;28;20394;-82
2022/07/31 03:47:29;;;;;;;5.00;2.70;;;;;;;20.50;54.19;99965.38;5073830;28;20039;-82
2022/07/31 03:49:55;;;;;;;3.92;2.35;;;;;;;20.38;54.77;99963.28;5063402;28;20029;-82
2022/07/31 03:52:20;;;;;;;5.07;2.88;;;;;;;20.35;54.68;99961.97;5054746;28;20486;-82
2022/07/31 03:54:46;;;;;;;4.60;2.35;;;;;;;20.34;54.45;99965.84;5055216;28;20029;-92
2022/07/31 03:57:12;;;;;;;5.82;2.83;;;;;;;20.40;54.07;99970.09;5055559;28;20029;-92
2022/07/31 03:59:38;;;;;;;6.18;3.45;;;;;;;20.45;54.01;99963.56;5049532;28;20037;-83
2022/07/31 04:02:06;;;;;;;6.97;3.13;;;;;;;20.53;53.17;99967.47;5034621;28;20029;-82
2022/07/31 04:04:32;;;;;;;17.60;3.50;;;;;;;20.54;52.70;99966.34;5033220;28;20033;-80
2022/07/31 04:06:57;;;;;;;4.43;2.63;;;;;;;20.56;52.75;99964.06;5032817;28;20056;-81
2022/07/31 04:09:23;;;;;;;5.28;2.67;;;;;;;20.39;53.10;99964.88;5037882;28;20082;-83
2022/07/31 04:11:48;;;;;;;4.07;2.13;;;;;;;20.54;52.61;99971.88;5059744;28;20067;-82
2022/07/31 04:14:13;;;;;;;9.95;2.55;;;;;;;20.23;53.27;99976.47;5074323;28;20967;-82
2022/07/31 04:16:38;;;;;;;5.50;3.10;;;;;;;20.16;53.43;99974.16;5070049;28;20145;-78
2022/07/31 04:19:04;;;;;;;5.45;2.58;;;;;;;20.17;53.47;99989.66;5066292;28;20075;-78
2022/07/31 04:21:29;;;;;;;5.33;2.20;;;;;;;20.14;53.84;99979.22;5052616;28;20667;-81
2022/07/31 04:23:54;;;;;;;4.87;3.00;;;;;;;20.14;53.68;99979.22;5052296;28;20257;-80
2022/07/31 04:26:20;;;;;;;5.23;2.77;;;;;;;20.29;53.61;99966.03;5048613;28;20285;-76
2022/07/31 04:28:45;;;;;;;7.03;2.63;;;;;;;20.30;53.25;99982.31;5047941;28;20258;-75
2022/07/31 04:31:10;;;;;;;4.68;2.58;;;;;;;20.10;53.96;99977.41;5031882;28;20065;-84
2022/07/31 04:33:35;;;;;;;29.83;4.37;;;;;;;20.25;53.79;99974.19;5033498;28;20033;-82
2022/07/31 04:36:01;;;;;;;6.05;2.55;;;;;;;20.14;54.01;99970.09;5030533;28;20259;-78
2022/07/31 04:38:26;;;;;;;6.33;2.50;;;;;;;20.30;53.54;99965.69;5028699;28;20491;-78
2022/07/31 04:40:52;;;;;;;4.53;2.55;;;;;;;20.08;54.21;99968.63;5031932;28;20270;-85
2022/07/31 04:43:17;;;;;;;7.70;3.43;;;;;;;20.20;53.87;99968.00;5034746;28;20033;-85
2022/07/31 04:45:42;;;;;;;12.20;3.55;;;;;;;20.23;53.58;99970.09;5031553;28;20841;-78
2022/07/31 04:48:09;;;;;;;7.55;2.72;;;;;;;20.27;54.08;99979.38;5067289;28;20112;-78
2022/07/31 04:50:35;;;;;;;6.60;3.00;;;;;;;20.28;53.85;99975.47;5050641;28;20794;-75
2022/07/31 04:53:00;;;;;;;5.65;2.70;;;;;;;20.36;53.73;99973.84;5047627;28;20029;-75
2022/07/31 04:55:25;;;;;;;5.60;1.80;;;;;;;20.32;53.88;99973.66;5048198;28;20037;-78
2022/07/31 04:57:51;;;;;;;6.47;3.20;;;;;;;20.28;53.76;99981.00;5048348;28;20246;-77
2022/07/31 05:00:16;;;;;;;3.67;2.55;;;;;;;20.15;54.13;99986.38;5036347;28;20285;-92
2022/07/31 05:02:41;;;;;;;7.05;2.22;;;;;;;20.18;54.34;99980.19;5031095;28;20372;-91
2022/07/31 05:05:07;;;;;;;3.60;2.45;;;;;;;20.27;54.26;99976.63;5033353;28;20507;-80
2022/07/31 05:07:33;;;;;;;4.80;2.55;;;;;;;20.44;53.79;99969.44;5031386;28;20547;-80
2022/07/31 05:09:58;;;;;;;4.40;2.53;;;;;;;20.25;54.06;99967.81;5042090;28;20112;-91
2022/07/31 05:12:24;;;;;;;9.80;3.15;;;;;;;20.34;54.23;99982.47;5064792;28;20117;-91
2022/07/31 05:14:50;;;;;;;3.65;2.30;;;;;;;20.33;54.25;99964.25;5073020;28;20122;-78
2022/07/31 05:17:16;;;;;;;6.38;2.65;;;;;;;20.49;53.94;99963.72;5067980;28;20043;-78
2022/07/31 05:19:41;;;;;;;5.82;2.53;;;;;;;20.59;53.41;99971.69;5067699;28;20059;-78
2022/07/31 05:22:06;;;;;;;5.27;2.93;;;;;;;20.61;53.71;99980.50;5067801;28;20060;-78
2022/07/31 05:24:31;;;;;;;8.60;3.23;;;;;;;20.67;53.50;99980.31;5068051;28;20316;-81
2022/07/31 05:27:03;;;;;;;4.00;2.25;;;;;;;20.61;54.04;99979.66;5072473;28;20264;-83
2022/07/31 05:29:30;;;;;;;6.63;2.90;;;;;;;20.37;54.37;99984.59;5059514;28;20716;-82
2022/07/31 05:31:55;;;;;;;5.72;2.67;;;;;;;20.39;54.77;99974.00;5032216;28;20033;-82
2022/07/31 05:34:22;;;;;;;5.95;2.50;;;;;;;20.46;55.14;99986.53;5031858;28;20587;-82
2022/07/31 05:36:47;;;;;;;4.60;2.90;;;;;;;20.52;54.69;99988.81;5032864;28;20065;-85
2022/07/31 05:39:12;;;;;;;6.80;3.00;;;;;;;20.59;54.94;99993.03;5036850;28;20484;-85
2022/07/31 05:41:37;;;;;;;7.50;2.60;;;;;;;20.64;54.70;99988.13;5044656;28;20669;-78
2022/07/31 05:44:03;;;;;;;5.32;3.45;;;;;;;20.73;54.92;99988.13;5027593;28;20350;-78
2022/07/31 05:46:28;;;;;;;5.70;3.33;;;;;;;20.58;54.96;99985.88;5037947;28;20029;-78
2022/07/31 05:48:54;;;;;;;7.20;3.15;;;;;;;20.76;55.09;99989.44;5063629;28;20037;-78
2022/07/31 05:51:19;;;;;;;8.63;2.67;;;;;;;20.72;55.15;99988.47;5048970;28;20068;-78
2022/07/31 05:53:44;;;;;;;11.53;3.70;;;;;;;20.97;54.64;99986.00;5047150;28;20808;-78
2022/07/31 05:56:10;;;;;;;4.03;2.85;;;;;;;21.15;54.24;99985.94;5046964;28;20281;-78
2022/07/31 05:58:35;;;;;;;6.03;3.17;;;;;;;20.94;54.71;99983.84;5047242;28;20047;-78
2022/07/31 06:01:02;;;;;;;6.78;3.22;;;;;;;20.73;55.34;99987.31;5046476;28;20626;-76
2022/07/31 06:03:28;;;;;;;5.45;3.42;;;;;;;20.62;56.02;99984.09;5045600;28;20040;-75
2022/07/31 06:05:55;;;;;;;6.50;3.50;;;;;;;20.62;56.50;99993.22;5050991;28;20029;-91
2022/07/31 06:08:20;;;;;;;5.75;3.85;;;;;;;20.86;55.54;99986.31;5052992;28;20025;-91
2022/07/31 06:10:45;;;;;;;6.43;2.95;;;;;;;20.83;56.16;99978.66;5048913;28;20029;-75
2022/07/31 06:13:12;;;;;;;12.82;3.75;;;;;;;20.71;56.79;99978.50;5046037;28;20048;-75
2022/07/31 06:15:37;;;;;;;5.80;3.30;;;;;;;20.94;55.99;99981.06;5049810;28;20052;-86
2022/07/31 06:18:03;;;;;;;11.25;3.72;;;;;;;20.79;56.42;99980.44;5052518;28;20029;-85
2022/07/31 06:20:28;;;;;;;9.07;3.38;;;;;;;20.83;56.75;99983.38;5051285;28;20037;-79
2022/07/31 06:22:54;;;;;;;8.02;3.58;;;;;;;21.02;55.96;99983.03;5049550;28;20025;-80
2022/07/31 06:25:19;;;;;;;7.28;3.08;;;;;;;21.10;56.40;99979.44;5081393;28;20033;-81
2022/07/31 06:27:45;;;;;;;7.95;4.07;;;;;;;20.79;56.93;99980.44;5049794;28;20032;-80
2022/07/31 06:30:11;;;;;;;8.25;3.80;;;;;;;20.63;57.74;99980.97;5050437;28;20533;-81
2022/07/31 06:32:36;;;;;;;7.30;4.55;;;;;;;20.60;57.94;99978.88;5049291;28;20036;-80
2022/07/31 06:35:03;;;;;;;7.40;3.75;;;;;;;20.53;58.07;99984.09;5047004;28;20385;-78
2022/07/31 06:37:28;;;;;;;9.80;4.28;;;;;;;20.70;58.30;99979.66;5045519;28;20683;-78
2022/07/31 06:39:53;;;;;;;9.10;3.50;;;;;;;20.87;58.04;99979.63;5047424;28;20037;-85
2022/07/31 06:42:23;;;;;;;7.25;4.10;;;;;;;20.70;58.40;99985.22;5052345;28;20029;-85
2022/07/31 06:44:48;;;;;;;15.40;3.53;;;;;;;20.46;59.22;99987.34;5051186;28;20051;-83
2022/07/31 06:47:15;;;;;;;7.38;3.80;;;;;;;20.74;58.63;99984.22;5063058;28;20033;-82
2022/07/31 06:49:40;;;;;;;5.65;3.50;;;;;;;20.90;58.32;99974.56;5042358;28;20396;-75
2022/07/31 06:52:06;;;;;;;9.55;4.65;;;;;;;20.99;58.28;99984.50;5025611;28;20033;-75
2022/07/31 06:54:31;;;;;;;9.23;4.55;;;;;;;21.17;58.24;99978.94;5026005;28;20134;-85
2022/07/31 06:56:57;;;;;;;7.75;4.85;;;;;;;21.21;58.19;99973.53;5043389;28;20039;-85
2022/07/31 06:59:22;;;;;;;7.83;3.73;;;;;;;21.24;57.99;99967.31;5038342;28;20037;-83
2022/07/31 07:01:47;;;;;;;6.35;3.95;;;;;;;21.09;58.72;99972.25;5049389;28;20348;-83
2022/07/31 07:04:12;;;;;;;7.67;4.60;;;;;;;21.21;58.26;99976.31;5051165;28;20059;-83
2022/07/31 07:06:38;;;;;;;8.38;4.32;;;;;;;20.93;58.99;99968.38;5044037;28;20039;-83
2022/07/31 07:09:03;;;;;;;10.45;3.78;;;;;;;20.98;58.60;99977.34;5058347;28;20100;-82
2022/07/31 07:11:28;;;;;;;8.00;4.93;;;;;;;20.94;58.94;99964.44;5032973;28;20598;-76
2022/07/31 07:13:54;;;;;;;7.50;4.07;;;;;;;21.21;58.54;99973.53;5035456;28;20278;-77
2022/07/31 07:16:19;;;;;;;8.63;3.95;;;;;;;21.15;58.93;99978.44;5037958;28;20690;-84
2022/07/31 07:18:45;;;;;;;9.73;3.95;;;;;;;21.32;58.46;99976.72;5038388;28;20033;-83
2022/07/31 07:21:11;;;;;;;12.93;4.45;;;;;;;21.53;57.88;99967.66;5031893;28;20029;-84
2022/07/31 07:23:36;;;;;;;5.70;3.40;;;;;;;21.17;58.27;99969.78;5047258;28;20029;-84
2022/07/31 07:26:02;;;;;;;11.00;5.70;;;;;;;21.38;58.77;99971.84;5047706;28;20060;-78
2022/07/31 07:28:27;;;;;;;9.73;4.18;;;;;;;21.65;57.90;99959.44;5045981;28;20136;-77
2022/07/31 07:30:52;;;;;;;11.93;4.47;;;;;;;21.38;57.97;99963.50;5045069;28;20428;-77
2022/07/31 07:33:18;;;;;;;9.67;4.13;;;;;;;21.63;57.16;99961.72;5045237;28;20734;-77
2022/07/31 07:35:43;;;;;;;7.60;4.33;;;;;;;21.33;57.75;99958.97;5045461;28;20262;-75
2022/07/31 07:38:08;;;;;;;8.65;4.15;;;;;;;21.16;58.70;99960.66;5045312;28;20685;-75
2022/07/31 07:40:34;;;;;;;10.17;4.37;;;;;;;20.77;59.59;99969.72;5033048;28;20064;-81
2022/07/31 07:42:59;;;;;;;7.68;3.30;;;;;;;21.02;60.01;99957.28;5031413;28;20353;-83
2022/07/31 07:45:24;;;;;;;6.82;3.30;;;;;;;20.94;61.10;99961.69;5031441;28;20484;-83
2022/07/31 07:47:50;;;;;;;7.90;3.60;;;;;;;20.99;61.43;99956.00;5065564;28;20044;-83
2022/07/31 07:50:15;;;;;;;8.07;3.20;;;;;;;20.99;62.69;99948.50;5056405;28;20341;-76
2022/07/31 07:52:41;;;;;;;7.65;3.45;;;;;;;21.25;61.84;99952.31;5045058;28;20131;-75
2022/07/31 07:55:07;;;;;;;7.85;3.13;;;;;;;20.95;62.32;99935.63;5029828;28;20210;-77
2022/07/31 07:57:34;;;;;;;8.50;3.97;;;;;;;21.22;61.85;99937.16;5025789;28;20124;-77
2022/07/31 08:00:00;;;;;;;8.32;2.90;;;;;;;21.04;61.33;99939.19;5032710;28;20030;-83
2022/07/31 08:02:26;;;;;;;6.18;2.55;;;;;;;21.10;59.87;99937.84;5036484;28;20045;-83
2022/07/31 08:04:51;;;;;;;5.22;2.22;;;;;;;21.17;59.21;99944.84;5031664;28;20038;-82
2022/07/31 08:07:25;;;;;;;5.22;2.10;;;;;;;20.96;60.05;99940.00;5032898;28;20049;-83
2022/07/31 08:09:50;;;;;;;8.00;2.08;;;;;;;21.16;58.97;99940.44;5043227;28;20032;-82
2022/07/31 08:12:16;;;;;;;6.23;2.77;;;;;;;21.05;59.23;99937.22;5055453;28;20037;-83
2022/07/31 08:14:41;;;;;;;5.17;3.03;;;;;;;20.77;59.93;99938.41;5053724;28;20292;-77
2022/07/31 08:17:10;;;;;;;11.23;3.30;;;;;;;20.97;59.83;99936.91;5048990;28;20278;-77
2022/07/31 08:19:36;;;;;;;4.88;2.78;;;;;;;21.05;59.56;99942.78;5041549;28;20659;-80
2022/07/31 08:22:01;;;;;;;6.03;2.93;;;;;;;21.18;59.56;99949.22;5031922;28;20048;-80
2022/07/31 08:24:26;;;;;;;6.20;2.57;;;;;;;21.23;59.26;99943.50;5032406;28;20362;-77
2022/07/31 08:29:35;;;;;;;22.10;4.10;;;;;;;21.09;58.97;99943.75;5030235;28;20412;-88
2022/07/31 08:32:01;;;;;;;12.00;4.20;;;;;;;20.90;59.98;99936.59;5039146;28;20037;-89
2022/07/31 08:34:26;;;;;;;4.50;2.27;;;;;;;21.20;59.49;99933.06;5040325;28;20321;-88
2022/07/31 08:36:52;;;;;;;6.68;2.30;;;;;;;21.39;59.20;99935.44;5039984;28;20306;-88
2022/07/31 08:39:17;;;;;;;7.87;2.73;;;;;;;;;;5039955;28;20045;-89
2022/07/31 08:41:42;;;;;;;4.70;2.53;;;;;;;21.28;59.90;99940.53;5060139;28;20329;-88
2022/07/31 08:44:08;;;;;;;11.47;2.67;;;;;;;21.36;60.22;99940.84;5076245;28;20031;-89
2022/07/31 08:46:37;;;;;;;9.15;4.13;;;;;;;20.87;60.58;99943.59;5075737;28;20847;-88
2022/07/31 08:49:04;;;;;;;9.20;3.50;;;;;;;21.06;60.25;99947.97;5072131;28;20025;-88
2022/07/31 08:51:41;;;;;;;8.55;4.20;;;;;;;21.46;59.00;99946.00;5054460;28;20063;-82
2022/07/31 08:54:11;;;;;;;5.82;3.22;;;;;;;20.96;60.86;99956.63;5046294;28;20137;-81
2022/07/31 08:56:37;;;;;;;7.75;3.05;;;;;;;21.10;59.96;99956.44;5034717;28;20041;-85
2022/07/31 08:59:04;;;;;;;14.32;3.03;;;;;;;21.15;60.15;99952.69;5034246;28;20036;-85
2022/07/31 09:01:32;;;;;;;7.18;4.07;;;;;;;21.06;60.62;99947.97;5052620;28;20098;-84
2022/07/31 09:03:58;;;;;;;7.97;3.25;;;;;;;21.21;60.19;99956.91;5052962;28;20072;-83
2022/07/31 09:06:23;;;;;;;9.05;3.22;;;;;;;21.00;61.12;99954.84;5048977;28;20328;-77
2022/07/31 09:08:49;;;;;;;5.80;2.60;;;;;;;21.22;60.72;99948.25;5047260;28;20033;-77
2022/07/31 09:11:14;;;;;;;14.57;4.00;;;;;;;21.40;60.61;99952.91;5032857;28;20037;-83
2022/07/31 09:14:00;;;;;;;7.30;3.00;;;;;;;21.58;60.12;99948.88;5053207;28;20063;-80
2022/07/31 09:16:26;;;;;;;6.22;3.00;;;;;;;21.60;60.53;99947.72;5047586;28;20041;-77
2022/07/31 09:19:01;;;;;;;8.60;2.80;;;;;;;21.50;60.95;99941.41;5046028;28;20076;-77
2022/07/31 09:21:41;;;;;;;3.42;2.00;;;;;;;21.73;60.23;99941.09;5027847;28;20045;-77
2022/07/31 09:24:09;;;;;;;5.95;2.97;;;;;;;21.50;61.01;99935.84;5027604;28;20140;-77
2022/07/31 09:26:35;;;;;;;5.03;2.58;;;;;;;21.51;61.22;99943.03;5048842;28;20091;-89
2022/07/31 09:29:07;;;;;;;6.53;2.97;;;;;;;21.51;61.30;99937.50;5037813;28;20041;-89
2022/07/31 09:31:34;;;;;;;5.20;2.63;;;;;;;21.63;61.61;99941.50;5050702;28;20082;-80
2022/07/31 09:34:00;;;;;;;10.60;2.90;;;;;;;21.54;61.31;99936.81;5049457;28;20506;-80
2022/07/31 09:36:25;;;;;;;6.35;2.90;;;;;;;21.57;61.23;99936.16;5052562;28;20112;-83
2022/07/31 09:38:51;;;;;;;4.45;1.95;;;;;;;21.57;61.45;99944.47;5050974;28;20270;-82
2022/07/31 09:41:19;;;;;;;10.05;3.13;;;;;;;21.48;62.07;99938.16;5033166;28;20033;-83
2022/07/31 09:44:02;;;;;;;3.30;1.52;;;;;;;21.44;62.14;99942.75;5052709;28;20041;-82
2022/07/31 09:46:41;;;;;;;4.90;1.60;;;;;;;21.63;61.88;99945.09;5053678;28;20036;-76
2022/07/31 09:49:07;;;;;;;6.20;2.10;;;;;;;21.85;60.85;99942.34;5059408;28;20322;-78
2022/07/31 09:51:44;;;;;;;4.47;1.88;;;;;;;21.70;61.66;99939.03;5030832;28;20061;-83
2022/07/31 09:54:39;;;;;;;2.90;1.80;;;;;;;21.76;61.52;99951.53;5037795;28;20048;-82
2022/07/31 09:57:14;;;;;;;6.78;2.33;;;;;;;21.56;62.13;99945.59;5044081;28;20044;-79
2022/07/31 09:59:40;;;;;;;3.33;1.83;;;;;;;21.85;61.43;99943.19;5050808;28;20045;-77
2022/07/31 10:02:07;;;;;;;4.65;1.85;;;;;;;21.60;62.32;99945.75;5046953;28;20043;-76
2022/07/31 10:04:36;;;;;;;4.13;1.70;;;;;;;21.83;61.98;99941.88;5047413;28;20037;-83
2022/07/31 10:07:01;;;;;;;4.20;2.28;;;;;;;21.98;61.48;99941.28;5052923;28;20037;-83
2022/07/31 10:09:28;;;;;;;8.70;2.40;;;;;;;22.24;61.77;99934.72;5052274;28;20044;-85
2022/07/31 10:11:54;;;;;;;2.80;1.40;;;;;;;22.08;61.43;99930.91;5052815;28;20040;-84
2022/07/31 10:14:34;;;;;;;5.75;2.15;;;;;;;22.09;61.08;99938.13;5052505;28;20037;-85
2022/07/31 10:17:03;;;;;;;4.78;2.05;;;;;;;22.00;60.74;99939.00;5047014;28;20040;-78
2022/07/31 10:19:33;;;;;;;3.10;1.40;;;;;;;21.95;60.73;99935.63;5045961;28;20595;-83
2022/07/31 10:22:02;;;;;;;3.50;1.98;;;;;;;22.45;59.56;99931.09;5048027;28;20568;-82
2022/07/31 10:24:34;;;;;;;3.42;1.48;;;;;;;22.03;60.94;99934.72;5061805;28;20056;-82
2022/07/31 10:27:00;;;;;;;3.07;1.20;;;;;;;22.24;60.61;99933.88;5071922;28;20499;-83
2022/07/31 10:29:26;;;;;;;2.95;1.90;;;;;;;22.06;60.11;99933.22;5065618;28;20131;-84
2022/07/31 10:31:51;;;;;;;4.03;1.95;;;;;;;22.11;60.56;99930.25;5052382;28;20318;-83
2022/07/31 10:34:18;;;;;;;3.90;1.77;;;;;;;22.20;60.73;99919.88;5051729;28;20044;-85
2022/07/31 10:36:47;;;;;;;5.65;1.77;;;;;;;22.45;59.53;99922.75;5084677;28;20033;-85
2022/07/31 10:39:28;;;;;;;2.65;1.50;;;;;;;22.39;60.18;99913.00;5048600;28;20052;-85
2022/07/31 10:42:18;;;;;;;3.30;1.65;;;;;;;22.44;60.22;99914.75;5035294;28;20044;-85
2022/07/31 10:44:49;;;;;;;7.18;1.88;;;;;;;22.61;59.70;99909.03;5033168;28;20077;-89
2022/07/31 10:47:16;;;;;;;4.63;1.95;;;;;;;22.90;59.47;99912.00;5057349;28;20020;-89
2022/07/31 10:49:42;;;;;;;3.08;1.63;;;;;;;22.65;58.98;99909.19;5055245;28;20045;-79
2022/07/31 10:52:08;;;;;;;5.97;1.92;;;;;;;22.63;58.64;99903.13;5028991;28;20033;-80
2022/07/31 10:54:45;;;;;;;5.70;2.58;;;;;;;22.70;58.87;99906.16;5029422;28;20056;-82
2022/07/31 10:57:23;;;;;;;7.75;1.98;;;;;;;22.45;59.25;99906.09;5028747;28;20096;-83
2022/07/31 10:59:49;;;;;;;5.90;1.73;;;;;;;22.33;59.32;99912.44;5039857;28;20073;-88
2022/07/31 11:02:26;;;;;;;5.57;2.25;;;;;;;22.30;59.31;99917.81;5052045;28;20060;-89
2022/07/31 11:04:52;;;;;;;4.05;2.05;;;;;;;22.76;58.17;99908.75;5039581;28;20518;-75
2022/07/31 11:07:19;;;;;;;3.57;1.93;;;;;;;22.45;58.73;99908.88;5038484;28;20039;-76
2022/07/31 11:09:45;;;;;;;3.05;1.52;;;;;;;22.60;58.08;99906.56;5037389;28;20283;-77
2022/07/31 11:12:18;;;;;;;2.83;1.30;;;;;;;22.72;58.15;99909.41;5046489;28;20427;-77
2022/07/31 11:14:43;;;;;;;5.13;2.75;;;;;;;22.78;57.84;99909.19;5027926;28;20060;-83
2022/07/31 11:17:08;;;;;;;4.43;1.73;;;;;;;23.25;57.29;99907.16;5034053;28;20485;-83
2022/07/31 11:19:39;;;;;;;3.85;2.17;;;;;;;23.49;55.70;99900.78;5039658;28;20049;-82
2022/07/31 11:22:11;;;;;;;4.85;2.13;;;;;;;23.42;56.10;99901.34;5052707;28;20029;-82
2022/07/31 11:24:37;;;;;;;5.03;1.95;;;;;;;23.49;56.52;99911.09;5052939;28;20496;-89
2022/07/31 11:27:03;;;;;;;5.50;2.33;;;;;;;23.32;56.08;99907.38;5052365;28;20606;-89
2022/07/31 11:29:31;;;;;;;5.10;2.25;;;;;;;23.60;55.88;99903.06;5037471;28;20049;-89
2022/07/31 11:32:14;;;;;;;4.18;1.73;;;;;;;23.25;56.15;99896.03;5050581;28;20079;-89
2022/07/31 11:34:52;;;;;;;;;;;;;;;23.05;56.29;99898.56;5054169;28;20033;-77